createdAt,value
2022-08-07T00:02:35.285Z,31.77
2022-08-07T00:04:15.558Z,32.17
2022-08-07T00:06:51.296Z,33.72
2022-08-07T00:09:22.415Z,27.75
2022-08-07T00:11:55.239Z,29.90
2022-08-07T00:14:31.626Z,27.33
2022-08-07T00:17:02.618Z,29.35
2022-08-07T00:20:02.517Z,27.50
2022-08-07T00:22:42.362Z,30.08
2022-08-07T00:25:21.634Z,26.90
2022-08-07T00:27:56.515Z,27.75
2022-08-07T00:30:28.661Z,25.77
2022-08-07T00:32:59.111Z,27.42
2022-08-07T00:35:29.637Z,28.70
2022-08-07T00:37:59.962Z,25.45
2022-08-07T00:40:39.150Z,25.25
2022-08-07T00:44:02.097Z,28.90
2022-08-07T00:46:03.375Z,27.13
2022-08-07T00:48:42.643Z,26.25
2022-08-07T00:51:22.862Z,26.35
2022-08-07T00:54:08.051Z,26.90
2022-08-07T00:56:41.696Z,24.40
2022-08-07T00:59:10.802Z,25.02
2022-08-07T01:01:41.495Z,29.35
2022-08-07T01:04:24.679Z,29.77
2022-08-07T01:06:54.358Z,38.40
2022-08-07T01:10:04.030Z,54.28
2022-08-07T01:13:22.742Z,60.65
2022-08-07T01:16:58.805Z,111.25
2022-08-07T01:20:32.349Z,136.75
2022-08-07T01:24:02.419Z,155.25
2022-08-07T01:27:32.343Z,182.57
2022-08-07T01:30:59.551Z,187.43
2022-08-07T01:33:55.905Z,185.65
2022-08-07T01:36:52.871Z,171.43
2022-08-07T01:39:41.445Z,152.55
2022-08-07T01:42:56.897Z,143.25
2022-08-07T01:45:37.042Z,135.20
2022-08-07T01:48:21.111Z,128.55
2022-08-07T01:51:24.243Z,122.07
2022-08-07T01:54:12.540Z,128.95
2022-08-07T01:56:55.716Z,128.48
2022-08-07T01:59:31.070Z,118.05
2022-08-07T02:02:10.582Z,131.43
2022-08-07T02:04:52.668Z,131.98
2022-08-07T02:07:35.761Z,135.07
2022-08-07T02:10:16.828Z,128.95
2022-08-07T02:13:56.580Z,139.40
2022-08-07T02:16:33.436Z,148.82
2022-08-07T02:20:07.016Z,178.10
2022-08-07T02:22:00.028Z,161.05
2022-08-07T02:24:32.313Z,172.85
2022-08-07T02:27:03.806Z,163.18
2022-08-07T02:29:43.345Z,163.80
2022-08-07T02:32:15.532Z,168.48
2022-08-07T02:34:48.903Z,168.18
2022-08-07T02:37:36.793Z,157.50
2022-08-07T02:40:34.944Z,173.33
2022-08-07T02:43:08.008Z,160.32
2022-08-07T02:45:58.571Z,142.82
2022-08-07T02:48:32.137Z,144.43
2022-08-07T02:51:28.772Z,201.85
2022-08-07T02:54:03.970Z,154.02
2022-08-07T02:56:34.671Z,132.07
2022-08-07T02:59:09.171Z,132.75
2022-08-07T03:01:42.897Z,125.47
2022-08-07T03:04:23.726Z,126.13
2022-08-07T03:06:53.967Z,127.40
2022-08-07T03:09:43.869Z,127.32
2022-08-07T03:12:22.379Z,127.80
2022-08-07T03:15:02.419Z,125.47
2022-08-07T03:17:53.349Z,126.93
2022-08-07T03:20:27.647Z,130.95
2022-08-07T03:22:59.136Z,127.97
2022-08-07T03:25:32.466Z,127.15
2022-08-07T03:28:38.298Z,121.65
2022-08-07T03:31:24.414Z,118.15
2022-08-07T03:34:02.689Z,116.95
2022-08-07T03:36:46.617Z,115.35
2022-08-07T03:40:00.045Z,114.13
2022-08-07T03:42:09.803Z,108.38
2022-08-07T03:44:39.866Z,111.50
2022-08-07T03:47:14.423Z,108.28
2022-08-07T03:49:52.428Z,111.43
2022-08-07T03:52:30.922Z,114.97
2022-08-07T03:55:13.956Z,110.50
2022-08-07T03:58:33.181Z,112.32
2022-08-07T04:00:46.585Z,108.93
2022-08-07T04:03:23.065Z,105.18
2022-08-07T04:05:58.653Z,113.25
2022-08-07T04:08:30.382Z,114.18
2022-08-07T04:12:25.208Z,114.50
2022-08-07T04:14:33.099Z,112.20
2022-08-07T04:16:58.337Z,104.80
2022-08-07T04:19:51.254Z,112.72
2022-08-07T04:22:29.568Z,117.80
2022-08-07T04:25:08.775Z,112.80
2022-08-07T04:28:00.346Z,113.18
2022-08-07T04:30:43.860Z,107.88
2022-08-07T04:33:27.877Z,108.57
2022-08-07T04:35:58.076Z,109.82
2022-08-07T04:38:30.310Z,105.45
2022-08-07T04:41:00.214Z,107.80
2022-08-07T04:44:14.620Z,98.13
2022-08-07T04:46:59.639Z,101.63
2022-08-07T04:49:47.612Z,104.70
2022-08-07T04:58:13.809Z,101.28
2022-08-07T05:00:07.856Z,103.18
2022-08-07T05:02:16.911Z,108.53
2022-08-07T05:05:52.686Z,105.97
2022-08-07T05:08:13.169Z,105.65
2022-08-07T05:10:58.596Z,107.22
2022-08-07T05:14:53.976Z,105.43
2022-08-07T05:16:33.611Z,112.15
2022-08-07T05:19:17.323Z,109.22
2022-08-07T05:22:01.793Z,103.35
2022-08-07T05:24:44.830Z,112.53
2022-08-07T05:28:02.124Z,106.93
2022-08-07T05:30:06.659Z,112.45
2022-08-07T05:32:50.118Z,113.80
2022-08-07T05:35:23.800Z,106.18
2022-08-07T05:38:08.838Z,105.85
2022-08-07T05:40:50.290Z,110.57
2022-08-07T05:43:49.508Z,109.35
2022-08-07T05:46:13.645Z,102.70
2022-08-07T05:48:58.312Z,100.72
2022-08-07T05:51:33.287Z,107.45
2022-08-07T05:54:31.538Z,106.40
2022-08-07T05:57:10.659Z,104.53
2022-08-07T05:59:57.143Z,99.05
2022-08-07T06:02:36.033Z,94.93
2022-08-07T06:05:15.389Z,98.13
2022-08-07T06:08:13.362Z,102.10
2022-08-07T06:10:42.580Z,100.30
2022-08-07T06:13:18.963Z,107.80
2022-08-07T06:16:04.021Z,113.03
2022-08-07T06:18:33.806Z,114.78
2022-08-07T06:22:17.020Z,86.82
2022-08-07T06:24:45.991Z,84.53
2022-08-07T06:26:43.657Z,89.15
2022-08-07T06:29:30.293Z,107.40
2022-08-07T06:32:03.043Z,106.72
2022-08-07T06:34:34.080Z,86.90
2022-08-07T06:37:05.056Z,81.30
2022-08-07T06:40:16.204Z,82.35
2022-08-07T06:42:37.574Z,72.93
2022-08-07T06:45:23.120Z,81.07
2022-08-07T06:48:01.169Z,82.22
2022-08-07T06:50:47.712Z,79.82
2022-08-07T06:55:27.099Z,74.43
2022-08-07T06:56:49.367Z,74.88
2022-08-07T07:00:13.646Z,70.10
2022-08-07T07:02:53.496Z,63.80
2022-08-07T07:06:02.408Z,65.93
2022-08-07T07:08:18.591Z,68.85
2022-08-07T07:11:00.944Z,65.13
2022-08-07T07:13:55.441Z,64.78
2022-08-07T07:16:30.429Z,69.50
2022-08-07T07:19:56.262Z,65.90
2022-08-07T07:22:12.021Z,66.30
2022-08-07T07:25:02.766Z,63.10
2022-08-07T07:27:55.623Z,62.72
2022-08-07T07:30:37.887Z,61.85
2022-08-07T07:33:12.266Z,60.25
2022-08-07T07:36:04.555Z,62.15
2022-08-07T07:38:36.150Z,64.32
2022-08-07T07:41:09.448Z,61.83
2022-08-07T07:43:48.199Z,64.77
2022-08-07T07:46:54.140Z,62.20
2022-08-07T07:50:34.146Z,68.38
2022-08-07T07:52:27.578Z,72.05
2022-08-07T07:54:58.092Z,68.90
2022-08-07T07:57:43.728Z,76.25
2022-08-07T08:00:21.083Z,76.82
2022-08-07T08:03:08.506Z,73.43
2022-08-07T08:05:50.603Z,74.55
2022-08-07T08:08:36.967Z,79.45
2022-08-07T08:11:16.547Z,78.50
2022-08-07T08:14:01.402Z,85.65
2022-08-07T08:16:51.728Z,81.22
2022-08-07T08:20:18.853Z,80.25
2022-08-07T08:22:54.291Z,93.82
2022-08-07T08:27:20.484Z,83.57
2022-08-07T08:28:45.392Z,98.53
2022-08-07T08:31:22.859Z,89.65
2022-08-07T08:34:12.400Z,76.40
2022-08-07T08:36:58.460Z,80.85
2022-08-07T08:39:39.789Z,85.55
2022-08-07T08:42:46.298Z,79.72
2022-08-07T08:45:58.685Z,88.65
2022-08-07T08:48:38.555Z,85.57
2022-08-07T08:51:49.611Z,93.47
2022-08-07T08:54:44.736Z,86.73
2022-08-07T08:57:27.309Z,92.03
2022-08-07T09:00:11.494Z,90.47
2022-08-07T09:03:02.127Z,93.40
2022-08-07T09:05:59.743Z,101.63
2022-08-07T09:08:58.466Z,92.18
2022-08-07T09:11:54.164Z,91.60
2022-08-07T09:14:41.051Z,86.70
2022-08-07T09:17:59.516Z,94.75
2022-08-07T09:20:38.985Z,79.30
2022-08-07T09:24:54.123Z,73.93
2022-08-07T09:26:58.691Z,75.88
2022-08-07T09:30:04.319Z,70.22
2022-08-07T09:33:16.780Z,69.30
2022-08-07T09:36:09.860Z,69.10
2022-08-07T09:39:18.018Z,66.22
2022-08-07T09:42:23.065Z,61.33
2022-08-07T09:47:25.741Z,51.72
2022-08-07T09:48:18.985Z,53.88
2022-08-07T09:50:54.867Z,51.75
2022-08-07T09:53:55.116Z,48.50
2022-08-07T09:56:41.960Z,48.47
2022-08-07T09:59:31.082Z,48.13
2022-08-07T10:06:00.258Z,42.80
2022-08-07T10:09:15.187Z,37.28
2022-08-07T10:15:22.778Z,37.47
2022-08-07T10:18:10.847Z,39.22
2022-08-07T10:20:50.206Z,38.90
2022-08-07T10:23:19.286Z,30.25
2022-08-07T10:26:27.589Z,30.08
2022-08-07T10:32:37.100Z,31.98
2022-08-07T10:35:20.989Z,30.50
2022-08-07T10:38:33.106Z,27.63
2022-08-07T10:41:45.963Z,33.50
2022-08-07T10:44:37.886Z,32.17
2022-08-07T10:47:27.214Z,28.20
2022-08-07T10:50:15.686Z,25.38
2022-08-07T10:53:10.348Z,23.20
2022-08-07T10:55:44.703Z,23.95
2022-08-07T10:58:36.749Z,24.25
2022-08-07T11:01:15.282Z,24.92
2022-08-07T11:04:05.684Z,22.80
2022-08-07T11:07:02.138Z,22.13
2022-08-07T11:10:09.158Z,22.73
2022-08-07T11:13:02.228Z,22.17
2022-08-07T11:15:49.871Z,16.48
2022-08-07T11:18:35.742Z,20.58
2022-08-07T11:21:28.515Z,19.45
2022-08-07T11:28:02.572Z,18.45
2022-08-07T11:30:39.085Z,19.30
2022-08-07T11:37:03.556Z,20.30
2022-08-07T11:43:15.577Z,14.23
2022-08-07T11:45:54.587Z,16.17
2022-08-07T11:48:53.983Z,15.70
2022-08-07T11:51:57.714Z,13.90
2022-08-07T11:58:16.522Z,12.10
2022-08-07T12:04:54.408Z,14.32
2022-08-07T12:07:39.178Z,14.35
2022-08-07T12:10:31.988Z,13.30
2022-08-07T12:13:17.043Z,12.10
2022-08-07T12:16:05.986Z,16.33
2022-08-07T12:19:02.744Z,20.77
2022-08-07T12:22:39.103Z,13.98
2022-08-07T12:26:03.022Z,12.38
2022-08-07T12:28:52.935Z,12.73
2022-08-07T12:31:52.851Z,14.80
2022-08-07T12:34:36.434Z,12.48
2022-08-07T12:37:08.502Z,13.55
2022-08-07T12:39:51.278Z,16.17
2022-08-07T12:42:28.610Z,11.52
2022-08-07T12:45:09.819Z,12.38
2022-08-07T12:47:41.630Z,12.50
2022-08-07T12:50:33.985Z,13.25
2022-08-07T13:02:40.423Z,16.52
2022-08-07T13:06:03.283Z,16.80
2022-08-07T13:08:44.859Z,22.83
2022-08-07T13:14:38.887Z,16.95
2022-08-07T13:17:40.918Z,20.43
2022-08-07T13:20:46.951Z,16.20
2022-08-07T13:24:02.146Z,16.35
2022-08-07T13:26:33.071Z,18.73
2022-08-07T13:29:12.735Z,17.13
2022-08-07T13:31:55.086Z,17.35
2022-08-07T13:34:44.779Z,16.05
2022-08-07T13:37:41.074Z,16.58
2022-08-07T13:40:35.883Z,15.45
2022-08-07T13:43:16.155Z,16.88
2022-08-07T13:46:21.117Z,16.50
2022-08-07T13:48:58.760Z,19.23
2022-08-07T13:52:23.112Z,16.00
2022-08-07T13:54:33.602Z,17.85
2022-08-07T13:57:09.818Z,17.27
2022-08-07T13:59:44.269Z,17.30
2022-08-07T14:02:33.261Z,18.15
2022-08-07T14:05:06.931Z,19.83
2022-08-07T14:08:00.930Z,31.42
2022-08-07T14:10:43.713Z,25.73
2022-08-07T14:13:33.378Z,22.02
2022-08-07T14:16:15.416Z,18.75
2022-08-07T14:18:57.296Z,19.70
2022-08-07T14:22:04.222Z,19.33
2022-08-07T14:24:49.004Z,20.77
2022-08-07T14:28:10.274Z,17.92
2022-08-07T14:30:32.723Z,19.50
2022-08-07T14:33:05.346Z,18.45
2022-08-07T14:35:45.827Z,21.05
2022-08-07T14:38:33.312Z,20.27
2022-08-07T14:41:14.799Z,19.05
2022-08-07T14:43:56.931Z,19.38
2022-08-07T14:46:33.420Z,22.15
2022-08-07T14:54:54.110Z,19.30
2022-08-07T14:57:55.161Z,21.33
2022-08-07T15:00:29.669Z,18.85
2022-08-07T15:03:17.482Z,20.73
2022-08-07T15:05:54.289Z,18.70
2022-08-07T15:11:53.919Z,20.70
2022-08-07T15:14:25.418Z,23.10
2022-08-07T15:17:04.287Z,27.08
2022-08-07T15:22:37.838Z,22.58
2022-08-07T15:25:19.253Z,23.00
2022-08-07T15:28:04.092Z,21.13
2022-08-07T15:33:36.749Z,24.48
2022-08-07T15:37:04.174Z,25.77
2022-08-07T15:39:17.339Z,25.15
2022-08-07T15:42:44.320Z,25.35
2022-08-07T15:44:57.432Z,28.45
2022-08-07T15:48:00.152Z,27.60
2022-08-07T15:51:01.516Z,27.20
2022-08-07T15:53:51.750Z,25.83
2022-08-07T15:59:39.872Z,23.80
2022-08-07T16:02:28.909Z,25.60
2022-08-07T16:05:15.217Z,26.25
2022-08-07T16:08:33.333Z,24.40
2022-08-07T16:10:48.776Z,20.88
2022-08-07T16:13:58.684Z,23.55
2022-08-07T16:16:57.022Z,22.40
2022-08-07T16:20:02.762Z,19.98
2022-08-07T16:22:58.413Z,19.27
2022-08-07T16:25:54.982Z,20.60
2022-08-07T16:30:07.734Z,20.85
2022-08-07T16:32:03.760Z,20.35
2022-08-07T16:34:45.511Z,18.83
2022-08-07T16:41:22.219Z,22.35
2022-08-07T16:44:40.231Z,22.42
2022-08-07T16:47:30.785Z,20.60
2022-08-07T16:50:28.788Z,21.27
2022-08-07T16:53:55.263Z,19.35
2022-08-07T16:56:40.007Z,19.83
2022-08-07T16:59:46.003Z,21.80
2022-08-07T17:02:52.982Z,21.23
2022-08-07T17:06:28.440Z,22.70
2022-08-07T17:09:08.871Z,21.40
2022-08-07T17:12:01.363Z,18.90
2022-08-07T17:14:38.499Z,19.92
2022-08-07T17:17:21.624Z,20.00
2022-08-07T17:20:02.853Z,20.02
2022-08-07T17:23:03.010Z,19.20
2022-08-07T17:26:22.867Z,19.10
2022-08-07T17:30:16.238Z,19.05
2022-08-07T17:32:30.471Z,19.40
2022-08-07T17:35:49.931Z,18.05
2022-08-07T17:38:33.455Z,15.32
2022-08-07T17:42:04.580Z,16.40
2022-08-07T17:44:45.646Z,18.63
2022-08-07T17:47:38.422Z,16.80
2022-08-07T17:50:50.370Z,14.57
2022-08-07T17:54:02.280Z,16.45
2022-08-07T17:56:55.827Z,16.00
2022-08-07T17:59:41.776Z,15.45
2022-08-07T18:02:23.416Z,13.00
2022-08-07T18:05:21.374Z,18.17
2022-08-07T18:12:19.537Z,14.06
2022-08-07T18:14:38.184Z,13.73
2022-08-07T18:18:47.072Z,13.18
2022-08-07T18:21:07.461Z,13.50
2022-08-07T18:24:07.205Z,13.25
2022-08-07T18:26:57.624Z,13.45
2022-08-07T18:30:07.237Z,13.88
2022-08-07T18:33:12.129Z,13.98
2022-08-07T18:35:57.325Z,12.90
2022-08-07T18:38:58.005Z,13.57
2022-08-07T18:41:44.665Z,13.23
2022-08-07T18:48:02.644Z,12.52
2022-08-07T18:50:58.578Z,13.38
2022-08-07T18:53:45.421Z,11.70
2022-08-07T18:56:30.601Z,12.65
2022-08-07T18:59:47.608Z,14.27
2022-08-07T19:02:36.891Z,12.40
2022-08-07T19:05:22.907Z,13.35
2022-08-07T19:08:08.289Z,12.82
2022-08-07T19:10:51.205Z,12.55
2022-08-07T19:13:37.730Z,12.07
2022-08-07T19:17:01.161Z,11.52
2022-08-07T19:19:31.929Z,14.27
2022-08-07T19:22:11.250Z,14.33
2022-08-07T19:24:48.986Z,13.48
2022-08-07T19:28:58.377Z,12.88
2022-08-07T19:31:03.014Z,13.20
2022-08-07T19:33:13.172Z,13.73
2022-08-07T19:35:52.482Z,11.65
2022-08-07T19:38:25.677Z,14.07
2022-08-07T19:41:00.853Z,12.50
2022-08-07T19:43:49.333Z,12.30
2022-08-07T19:46:29.156Z,12.10
2022-08-07T19:49:05.962Z,11.82
2022-08-07T19:51:51.722Z,10.93
2022-08-07T19:54:35.358Z,12.20
2022-08-07T19:58:04.294Z,11.15
2022-08-07T20:00:54.240Z,11.30
2022-08-07T20:03:34.677Z,13.80
2022-08-07T20:06:15.706Z,12.05
2022-08-07T20:09:03.053Z,11.13
2022-08-07T20:12:22.911Z,11.27
2022-08-07T20:14:53.947Z,11.32
2022-08-07T20:17:31.377Z,12.07
2022-08-07T20:20:07.726Z,13.55
2022-08-07T20:22:41.690Z,10.63
2022-08-07T20:25:12.919Z,13.30
2022-08-07T20:27:57.922Z,11.38
2022-08-07T20:30:36.014Z,12.05
2022-08-07T20:33:24.503Z,11.52
2022-08-07T20:36:10.177Z,11.50
2022-08-07T20:38:59.569Z,11.63
2022-08-07T20:41:37.996Z,10.73
2022-08-07T20:44:12.911Z,10.40
2022-08-07T20:46:45.163Z,10.65
2022-08-07T20:50:01.249Z,10.60
2022-08-07T20:52:16.601Z,10.23
2022-08-07T20:54:53.801Z,10.73
2022-08-07T20:57:26.130Z,9.98
2022-08-07T21:00:10.431Z,10.23
2022-08-07T21:03:02.079Z,11.27
2022-08-07T21:06:04.022Z,11.13
2022-08-07T21:09:13.938Z,11.70
2022-08-07T21:11:50.977Z,10.65
2022-08-07T21:14:32.958Z,11.70
2022-08-07T21:18:20.783Z,10.20
2022-08-07T21:20:29.612Z,10.70
2022-08-07T21:23:08.210Z,11.15
2022-08-07T21:26:19.090Z,10.93
2022-08-07T21:29:03.648Z,9.90
2022-08-07T21:32:43.760Z,10.55
2022-08-07T21:34:52.207Z,12.38
2022-08-07T21:37:58.439Z,10.20
2022-08-07T21:40:46.041Z,10.45
2022-08-07T21:46:55.924Z,9.77
2022-08-07T21:50:02.900Z,10.63
2022-08-07T21:52:35.640Z,9.87
2022-08-07T21:55:29.916Z,9.48
2022-08-07T22:01:28.657Z,9.73
2022-08-07T22:04:22.344Z,12.07
2022-08-07T22:06:58.462Z,10.02
2022-08-07T22:09:37.986Z,9.23
2022-08-07T22:12:37.634Z,9.90
2022-08-07T22:16:42.361Z,11.00
2022-08-07T22:18:11.782Z,10.00
2022-08-07T22:21:02.300Z,8.98
2022-08-07T22:23:45.303Z,9.27
2022-08-07T22:26:21.391Z,9.27
2022-08-07T22:29:01.032Z,9.07
2022-08-07T22:32:03.395Z,9.30
2022-08-07T22:34:57.101Z,9.50
2022-08-07T22:38:04.150Z,9.10
2022-08-07T22:41:03.774Z,9.52
2022-08-07T22:43:57.100Z,9.65
2022-08-07T22:47:03.809Z,11.07
2022-08-07T22:50:09.461Z,9.63
2022-08-07T22:56:25.081Z,9.55
2022-08-07T22:59:20.216Z,10.05
2022-08-07T23:02:30.870Z,10.00
2022-08-07T23:06:14.650Z,9.60
2022-08-07T23:08:51.593Z,9.32
2022-08-07T23:11:46.152Z,9.93
2022-08-07T23:14:17.744Z,9.55
2022-08-07T23:17:26.859Z,9.65
2022-08-07T23:20:40.510Z,10.68
2022-08-07T23:24:06.954Z,9.73
2022-08-07T23:26:25.025Z,10.25
2022-08-07T23:29:17.089Z,9.35
2022-08-07T23:34:21.572Z,9.05
2022-08-07T23:35:50.120Z,8.55
2022-08-07T23:38:54.486Z,9.57
2022-08-07T23:42:01.408Z,9.50
2022-08-07T23:44:55.063Z,9.10
2022-08-07T23:47:49.782Z,9.93
2022-08-07T23:50:37.710Z,9.02
2022-08-07T23:55:58.376Z,10.05
